Marree, Australia
Current Conditions -  °F | °C
As of 1:00 PM on Saturday 29 Nov 2014 (Local Time) from YOLD Reporting Station
Clear Clear  
Wind Chill: 97°   Ceiling: Unl
Heat Index: 97°   Visibility: 6mi
Dew Point: 28°   Wind: 7mph
Humidity: 9%   Direction: 40°NE
Pressure: 29.77"   Gusts: NA
Location:  29.65°S, 138.07°E
Report Text: YOLD 290300Z AUTO 04006KT 360V070 9999 // NCD 36/M02 Q1008
Loading
Personal Weather Stations






























Interactive Weather Map New forecast layout! Learn more

10-Day Weather Forecast

Advertisements
Track Severe Weather on mobile